Time;durP1;ratioP1;P1;durP2;ratioP2;P2;SDS_P1;SDS_P2;PMS_P1;PMS_P2;Temp;Humidity;BMP_temperature;BMP_pressure;BME280_temperature;BME280_humidity;BME280_pressure;Samples;Min_cycle;Max_cycle;Signal;HPM_P1;HPM_P2
2024/01/15 00:00:21;;;;;;;8.10;2.13;;;2.50;99.90;;;;;;5009483;28;20272;-70
2024/01/15 00:02:49;;;;;;;10.13;2.40;;;2.50;99.90;;;;;;5011372;28;20304;-72
2024/01/15 00:05:16;;;;;;;12.57;1.60;;;2.60;99.90;;;;;;5013328;28;20253;-72
2024/01/15 00:07:43;;;;;;;7.88;2.22;;;2.50;99.90;;;;;;5008152;28;20205;-71
2024/01/15 00:10:10;;;;;;;11.82;1.67;;;2.60;99.90;;;;;;5012196;28;20687;-71
2024/01/15 00:12:37;;;;;;;7.95;1.80;;;2.50;99.90;;;;;;4999804;28;20575;-72
2024/01/15 00:15:05;;;;;;;6.53;1.40;;;2.50;99.90;;;;;;5008266;28;20221;-72
2024/01/15 00:17:33;;;;;;;7.85;2.22;;;2.50;99.90;;;;;;5007343;28;20206;-72
2024/01/15 00:20:02;;;;;;;10.27;4.20;;;2.50;99.90;;;;;;5004459;28;20210;-71
2024/01/15 00:22:29;;;;;;;5.85;1.75;;;2.60;99.90;;;;;;5006014;28;20571;-73
2024/01/15 00:24:56;;;;;;;6.65;1.85;;;2.60;99.90;;;;;;5013548;28;20562;-72
2024/01/15 00:27:23;;;;;;;4.15;1.65;;;2.60;99.90;;;;;;5007477;28;20256;-70
2024/01/15 00:29:51;;;;;;;6.93;1.95;;;2.70;99.90;;;;;;5012154;28;20663;-71
2024/01/15 00:32:19;;;;;;;9.60;2.40;;;2.80;99.90;;;;;;5011259;28;20221;-71
2024/01/15 00:34:46;;;;;;;6.13;1.77;;;2.80;99.90;;;;;;5013759;28;20591;-71
2024/01/15 00:37:15;;;;;;;7.10;2.15;;;2.90;99.90;;;;;;5012763;28;20197;-70
2024/01/15 00:39:42;;;;;;;7.43;2.53;;;2.90;99.90;;;;;;5001917;28;20202;-72
2024/01/15 00:42:09;;;;;;;12.00;2.20;;;2.90;99.90;;;;;;4996449;28;20321;-72
2024/01/15 00:44:36;;;;;;;5.43;1.98;;;2.90;99.90;;;;;;5009209;28;20639;-73
2024/01/15 00:47:03;;;;;;;12.95;2.97;;;2.90;99.90;;;;;;5005204;28;20288;-72
2024/01/15 00:49:30;;;;;;;10.40;3.85;;;3.00;99.90;;;;;;5006753;28;20206;-71
2024/01/15 00:51:57;;;;;;;15.60;2.30;;;3.00;99.90;;;;;;5001780;28;20676;-71
2024/01/15 00:54:25;;;;;;;9.00;2.47;;;3.00;99.90;;;;;;5007766;28;20622;-72
2024/01/15 00:56:52;;;;;;;13.82;2.20;;;3.10;99.90;;;;;;5005960;28;20237;-72
2024/01/15 00:59:20;;;;;;;7.00;2.25;;;3.20;99.90;;;;;;5009247;28;20232;-73
2024/01/15 01:01:47;;;;;;;4.57;2.38;;;3.30;99.90;;;;;;5004853;28;20291;-71
2024/01/15 01:04:14;;;;;;;4.43;1.83;;;3.10;99.90;;;;;;5012848;28;20240;-70
2024/01/15 01:06:41;;;;;;;5.28;1.90;;;3.20;99.90;;;;;;5003087;28;20696;-71
2024/01/15 01:09:08;;;;;;;8.95;1.85;;;3.10;99.90;;;;;;5004480;28;20274;-72
2024/01/15 01:11:37;;;;;;;11.45;3.08;;;3.10;99.90;;;;;;5004405;28;20253;-72
2024/01/15 01:14:04;;;;;;;11.07;2.67;;;3.20;99.90;;;;;;5005887;28;20209;-71
2024/01/15 01:16:34;;;;;;;6.38;1.50;;;3.00;99.90;;;;;;5003792;28;20205;-72
2024/01/15 01:19:01;;;;;;;7.30;3.40;;;3.10;99.90;;;;;;5007183;28;20340;-72
2024/01/15 01:21:28;;;;;;;5.90;2.05;;;3.10;99.90;;;;;;5011303;28;20657;-72
2024/01/15 01:23:55;;;;;;;6.85;1.70;;;3.10;99.90;;;;;;5010359;28;20201;-70
2024/01/15 01:26:22;;;;;;;9.00;2.90;;;3.10;99.90;;;;;;5011490;28;20229;-70
2024/01/15 01:28:50;;;;;;;9.82;2.38;;;3.20;99.90;;;;;;5011114;28;20683;-71
2024/01/15 01:31:17;;;;;;;4.05;1.88;;;3.20;99.90;;;;;;5010348;28;20202;-73
2024/01/15 01:33:44;;;;;;;9.02;2.10;;;3.20;99.90;;;;;;5001403;28;20209;-71
2024/01/15 01:36:11;;;;;;;5.55;1.88;;;3.00;99.90;;;;;;5006199;28;20201;-72
2024/01/15 01:38:38;;;;;;;13.43;2.35;;;2.80;99.90;;;;;;5004784;28;20299;-70
2024/01/15 01:41:05;;;;;;;12.32;1.70;;;2.80;99.90;;;;;;5011182;28;20228;-71
2024/01/15 01:43:32;;;;;;;9.90;1.20;;;2.80;99.90;;;;;;5010890;28;20340;-72
2024/01/15 01:46:03;;;;;;;4.93;1.42;;;2.70;99.90;;;;;;5012571;28;20676;-69
2024/01/15 01:48:32;;;;;;;5.32;2.00;;;2.60;99.90;;;;;;5004782;28;20604;-70
2024/01/15 01:51:01;;;;;;;4.45;1.60;;;2.40;99.90;;;;;;5010897;28;20201;-71
2024/01/15 01:53:28;;;;;;;1.83;1.63;;;2.50;99.90;;;;;;5005682;28;20648;-71
2024/01/15 01:55:57;;;;;;;7.22;1.42;;;2.60;99.90;;;;;;5007285;28;20244;-72
2024/01/15 01:58:25;;;;;;;6.13;1.63;;;2.60;99.90;;;;;;5008594;28;20205;-71
2024/01/15 02:00:52;;;;;;;6.85;1.63;;;2.70;99.90;;;;;;5014333;28;20217;-70
2024/01/15 02:03:21;;;;;;;6.25;2.08;;;2.60;99.90;;;;;;5003320;28;20315;-69
2024/01/15 02:05:49;;;;;;;9.05;2.75;;;2.50;99.90;;;;;;5005777;28;20295;-70
2024/01/15 02:08:16;;;;;;;9.45;1.65;;;2.60;99.90;;;;;;5012152;28;20229;-70
2024/01/15 02:10:43;;;;;;;9.13;2.60;;;2.60;99.90;;;;;;5009057;28;20237;-70
2024/01/15 02:13:10;;;;;;;5.22;1.40;;;2.60;99.90;;;;;;5003111;28;20271;-71
2024/01/15 02:15:37;;;;;;;2.75;1.33;;;2.60;99.90;;;;;;5011372;28;20228;-70
2024/01/15 02:18:07;;;;;;;20.88;2.45;;;2.60;99.90;;;;;;5011434;28;20621;-72
2024/01/15 02:20:35;;;;;;;14.27;5.13;;;2.60;99.90;;;;;;5013694;28;20201;-70
2024/01/15 02:23:10;;;;;;;6.50;2.25;;;2.60;99.90;;;;;;5004172;28;20233;-69
2024/01/15 02:25:39;;;;;;;9.60;1.80;;;2.70;99.90;;;;;;5030791;28;20231;-73
2024/01/15 02:28:07;;;;;;;8.32;2.55;;;2.70;99.90;;;;;;5011835;28;20205;-69
2024/01/15 02:30:37;;;;;;;8.40;2.05;;;2.70;99.90;;;;;;5014572;28;20656;-71
2024/01/15 02:33:05;;;;;;;9.15;1.92;;;2.70;99.90;;;;;;5008987;28;20624;-70
2024/01/15 02:35:32;;;;;;;11.98;2.65;;;2.80;99.90;;;;;;5008345;28;20241;-71
2024/01/15 02:37:58;;;;;;;13.07;2.00;;;2.90;99.90;;;;;;5009615;28;20205;-71
2024/01/15 02:40:27;;;;;;;10.98;2.17;;;2.90;99.90;;;;;;5010877;28;20241;-70
2024/01/15 02:42:54;;;;;;;15.30;1.92;;;2.90;99.90;;;;;;5004698;28;20229;-71
2024/01/15 02:45:21;;;;;;;7.18;1.75;;;2.90;99.90;;;;;;5004854;28;20226;-71
2024/01/15 02:47:48;;;;;;;6.60;2.13;;;2.90;99.90;;;;;;5006444;28;20233;-72
2024/01/15 02:50:15;;;;;;;8.68;3.97;;;3.10;99.90;;;;;;5010493;28;20292;-69
2024/01/15 02:52:43;;;;;;;6.85;2.38;;;3.00;99.90;;;;;;5002994;28;20634;-69
2024/01/15 02:55:10;;;;;;;9.82;2.97;;;3.00;99.90;;;;;;5010818;28;20263;-70
2024/01/15 02:57:38;;;;;;;9.82;1.90;;;3.00;99.90;;;;;;5007350;28;20643;-69
2024/01/15 03:00:07;;;;;;;6.85;1.92;;;3.10;99.90;;;;;;5008706;28;20214;-72
2024/01/15 03:02:37;;;;;;;11.00;2.25;;;3.00;99.90;;;;;;5009444;28;20729;-70
2024/01/15 03:05:04;;;;;;;8.23;1.65;;;2.90;99.90;;;;;;5013499;28;20296;-70
2024/01/15 03:07:31;;;;;;;7.38;2.40;;;2.90;99.90;;;;;;5008770;28;20653;-70
2024/01/15 03:09:58;;;;;;;6.10;2.28;;;2.90;99.90;;;;;;5009896;28;20593;-72
2024/01/15 03:12:25;;;;;;;5.63;1.10;;;2.90;99.90;;;;;;4998984;28;20229;-69
2024/01/15 03:14:53;;;;;;;14.70;2.17;;;2.80;99.90;;;;;;5015601;28;20252;-68
2024/01/15 03:17:20;;;;;;;13.02;2.72;;;2.80;99.90;;;;;;5007313;28;20198;-72
2024/01/15 03:19:49;;;;;;;10.32;1.30;;;2.70;99.90;;;;;;5013351;28;20624;-70
2024/01/15 03:22:16;;;;;;;5.00;1.63;;;2.70;99.90;;;;;;5005115;28;20747;-70
2024/01/15 03:24:43;;;;;;;3.97;1.95;;;2.70;99.90;;;;;;5013917;28;20201;-70
2024/01/15 03:27:10;;;;;;;9.80;3.10;;;2.60;99.90;;;;;;5006527;28;20261;-71
2024/01/15 03:29:37;;;;;;;12.75;2.30;;;2.60;99.90;;;;;;5006339;28;20233;-71
2024/01/15 03:32:05;;;;;;;8.23;1.80;;;2.60;99.90;;;;;;5007995;28;20225;-71
2024/01/15 03:34:32;;;;;;;10.38;2.72;;;2.60;99.90;;;;;;5012803;28;20205;-71
2024/01/15 03:36:59;;;;;;;11.98;2.63;;;2.60;99.90;;;;;;5014485;28;20564;-69
2024/01/15 03:39:26;;;;;;;5.70;1.70;;;2.60;99.90;;;;;;5007407;28;20224;-71
2024/01/15 03:41:53;;;;;;;6.25;2.28;;;2.60;99.90;;;;;;5013576;28;20225;-70
2024/01/15 03:44:20;;;;;;;4.45;1.27;;;2.60;99.90;;;;;;5005987;28;20237;-70
2024/01/15 03:46:47;;;;;;;5.13;1.50;;;2.60;99.90;;;;;;5009836;28;20691;-71
2024/01/15 03:49:15;;;;;;;6.13;2.15;;;2.60;99.90;;;;;;5014845;28;20233;-70
2024/01/15 03:51:42;;;;;;;5.28;1.52;;;2.60;99.90;;;;;;5007228;28;20221;-71
2024/01/15 03:54:09;;;;;;;3.50;1.45;;;2.70;99.90;;;;;;5012783;28;20237;-72
2024/01/15 03:56:36;;;;;;;7.82;1.77;;;2.60;99.90;;;;;;5014155;28;20225;-71
2024/01/15 03:59:03;;;;;;;4.50;1.58;;;2.70;99.90;;;;;;5013922;28;20955;-71
2024/01/15 04:01:30;;;;;;;7.50;2.05;;;2.70;99.90;;;;;;5006979;28;20293;-71
2024/01/15 04:03:57;;;;;;;4.65;2.78;;;2.70;99.90;;;;;;5002385;28;20213;-71
2024/01/15 04:06:26;;;;;;;7.82;1.75;;;2.70;99.90;;;;;;5010564;28;20284;-71
2024/01/15 04:08:54;;;;;;;6.65;1.60;;;2.70;99.90;;;;;;5009782;28;20210;-72
2024/01/15 04:11:22;;;;;;;5.47;1.73;;;2.70;99.90;;;;;;5007722;28;20300;-70
2024/01/15 04:13:49;;;;;;;9.80;2.35;;;2.70;99.90;;;;;;5008417;28;20257;-71
2024/01/15 04:16:16;;;;;;;10.15;2.22;;;2.80;99.90;;;;;;5010483;28;20281;-71
2024/01/15 04:18:43;;;;;;;12.18;1.80;;;2.80;99.90;;;;;;5010702;28;20213;-70
2024/01/15 04:21:10;;;;;;;9.65;3.08;;;2.80;99.90;;;;;;5008403;28;20237;-70
2024/01/15 04:23:39;;;;;;;6.88;2.10;;;2.80;99.90;;;;;;4998448;28;20233;-71
2024/01/15 04:26:06;;;;;;;4.13;1.73;;;3.00;99.90;;;;;;5007934;28;20229;-71
2024/01/15 04:28:33;;;;;;;7.68;2.70;;;2.80;99.90;;;;;;5005899;28;20209;-69
2024/01/15 04:31:00;;;;;;;10.35;1.90;;;2.80;99.90;;;;;;5009091;28;20248;-71
2024/01/15 04:33:27;;;;;;;5.30;1.45;;;2.70;99.90;;;;;;5008251;28;20225;-71
2024/01/15 04:35:54;;;;;;;8.30;3.40;;;2.90;99.90;;;;;;5010453;28;20663;-69
2024/01/15 04:38:21;;;;;;;13.73;2.28;;;2.80;99.90;;;;;;5003378;28;20245;-71
2024/01/15 04:40:49;;;;;;;5.43;1.85;;;2.80;99.90;;;;;;5001212;28;20245;-72
2024/01/15 04:43:16;;;;;;;11.60;2.22;;;2.90;99.90;;;;;;5006533;28;20244;-71
2024/01/15 04:45:43;;;;;;;9.15;1.80;;;2.90;99.90;;;;;;5006433;28;20248;-70
2024/01/15 04:48:10;;;;;;;6.78;3.20;;;3.00;99.90;;;;;;5006359;28;20237;-70
2024/01/15 04:50:37;;;;;;;18.50;3.10;;;3.00;99.90;;;;;;5007494;28;20741;-71
2024/01/15 04:53:05;;;;;;;7.93;2.00;;;3.00;99.90;;;;;;5007130;28;20229;-73
2024/01/15 04:55:32;;;;;;;14.43;2.95;;;3.10;99.90;;;;;;5010042;28;20271;-71
2024/01/15 04:58:01;;;;;;;15.50;3.08;;;3.10;99.90;;;;;;5013340;28;20662;-69
2024/01/15 05:00:34;;;;;;;11.95;2.30;;;3.10;99.90;;;;;;5005897;28;20218;-71
2024/01/15 05:03:01;;;;;;;15.02;2.30;;;3.20;99.90;;;;;;5007311;28;20229;-70
2024/01/15 05:05:28;;;;;;;6.80;2.13;;;3.00;99.90;;;;;;5009949;28;20233;-71
2024/01/15 05:07:55;;;;;;;11.20;3.42;;;3.00;99.90;;;;;;5006958;28;20275;-71
2024/01/15 05:10:22;;;;;;;5.80;1.42;;;3.00;99.90;;;;;;5008724;28;20209;-70
2024/01/15 05:12:49;;;;;;;7.78;2.35;;;2.90;99.90;;;;;;5008976;28;20261;-71
2024/01/15 05:15:17;;;;;;;13.10;2.80;;;2.90;99.90;;;;;;4997373;28;20338;-71
2024/01/15 05:17:44;;;;;;;14.93;5.00;;;2.80;99.90;;;;;;5009841;28;20275;-71
2024/01/15 05:20:12;;;;;;;7.80;1.55;;;2.80;99.90;;;;;;5003219;28;20248;-69
2024/01/15 05:22:39;;;;;;;6.68;2.03;;;2.80;99.90;;;;;;5009045;28;20283;-71
2024/01/15 05:25:07;;;;;;;8.40;2.20;;;2.80;99.90;;;;;;5009373;28;20248;-70
2024/01/15 05:27:34;;;;;;;9.85;2.40;;;2.80;99.90;;;;;;5007831;28;20627;-71
2024/01/15 05:30:01;;;;;;;9.05;2.60;;;2.80;99.90;;;;;;5010781;28;20236;-70
2024/01/15 05:32:29;;;;;;;6.75;1.98;;;2.80;99.90;;;;;;5007951;28;20225;-70
2024/01/15 05:34:56;;;;;;;15.55;2.63;;;2.80;99.90;;;;;;5010815;28;20248;-69
2024/01/15 05:37:23;;;;;;;5.60;2.45;;;2.80;99.90;;;;;;5001747;28;20641;-71
2024/01/15 05:39:50;;;;;;;8.50;3.28;;;2.80;99.90;;;;;;5011941;28;20209;-72
2024/01/15 05:42:17;;;;;;;17.45;3.95;;;2.70;99.90;;;;;;5009832;28;20422;-70
2024/01/15 05:44:44;;;;;;;17.20;2.83;;;2.70;99.90;;;;;;5005197;28;20318;-72
2024/01/15 05:47:11;;;;;;;11.20;2.75;;;2.70;99.90;;;;;;5010136;28;20347;-71
2024/01/15 05:49:39;;;;;;;5.40;2.00;;;2.80;99.90;;;;;;5012141;28;20205;-72
2024/01/15 05:52:07;;;;;;;6.13;2.70;;;2.80;99.90;;;;;;5010885;28;20279;-71
2024/01/15 05:54:34;;;;;;;17.08;2.97;;;2.80;99.90;;;;;;5007564;28;20260;-69
2024/01/15 05:57:01;;;;;;;4.18;1.65;;;2.90;99.90;;;;;;5006503;28;20205;-71
2024/01/15 05:59:31;;;;;;;7.00;2.78;;;2.90;99.90;;;;;;5006675;28;20209;-71
2024/01/15 06:01:58;;;;;;;9.75;2.85;;;3.00;99.90;;;;;;5002948;28;20320;-71
2024/01/15 06:04:26;;;;;;;7.80;2.83;;;3.10;99.90;;;;;;5002163;28;20268;-70
2024/01/15 06:06:54;;;;;;;5.35;2.53;;;3.20;99.90;;;;;;5000376;28;20213;-70
2024/01/15 06:09:21;;;;;;;7.88;2.13;;;3.10;99.90;;;;;;5002226;28;20201;-71
2024/01/15 06:11:48;;;;;;;10.43;2.00;;;3.10;99.90;;;;;;4999256;28;20649;-71
2024/01/15 06:14:15;;;;;;;13.70;3.05;;;3.20;99.90;;;;;;5006270;28;20256;-71
2024/01/15 06:16:42;;;;;;;11.43;2.60;;;3.10;99.90;;;;;;5007697;28;20198;-71
2024/01/15 06:19:09;;;;;;;10.43;2.38;;;3.10;99.90;;;;;;5007140;28;20657;-71
2024/01/15 06:21:36;;;;;;;6.63;2.47;;;3.20;99.90;;;;;;4999652;28;20688;-69
2024/01/15 06:24:05;;;;;;;9.50;2.25;;;3.00;99.90;;;;;;5008319;28;20252;-70
2024/01/15 06:26:32;;;;;;;8.65;2.13;;;3.00;99.90;;;;;;5002550;28;20749;-71
2024/01/15 06:28:59;;;;;;;11.00;2.00;;;2.90;99.90;;;;;;5000509;28;20622;-71
2024/01/15 06:31:26;;;;;;;10.90;2.60;;;2.90;99.90;;;;;;5003217;28;20295;-70
2024/01/15 06:33:53;;;;;;;12.52;3.58;;;3.00;99.90;;;;;;5003888;28;20252;-70
2024/01/15 06:36:19;;;;;;;10.82;3.45;;;2.90;99.90;;;;;;5006765;28;20248;-71
2024/01/15 06:38:46;;;;;;;12.23;2.30;;;3.00;99.90;;;;;;5005584;28;20301;-70
2024/01/15 06:41:15;;;;;;;11.13;2.60;;;2.90;99.90;;;;;;4999052;28;20680;-71
2024/01/15 06:43:42;;;;;;;8.93;2.50;;;2.80;99.90;;;;;;5009957;28;20332;-71
2024/01/15 06:46:09;;;;;;;4.45;2.05;;;2.80;99.90;;;;;;5007862;28;20213;-72
2024/01/15 06:48:37;;;;;;;9.43;2.00;;;2.90;99.90;;;;;;5010610;28;20289;-70
2024/01/15 06:51:05;;;;;;;10.82;3.38;;;2.90;99.90;;;;;;5010733;28;20202;-69
2024/01/15 06:53:32;;;;;;;6.45;2.05;;;3.00;99.90;;;;;;5010532;28;20739;-72
2024/01/15 06:55:59;;;;;;;5.35;1.67;;;3.10;99.90;;;;;;5011495;28;20229;-70
2024/01/15 06:58:28;;;;;;;5.35;1.42;;;3.10;99.90;;;;;;5011520;28;20285;-71
2024/01/15 07:00:54;;;;;;;4.82;3.22;;;3.10;99.90;;;;;;5002238;28;20274;-72
2024/01/15 07:03:22;;;;;;;2.70;1.70;;;3.10;99.90;;;;;;5004904;28;20303;-69
2024/01/15 07:05:49;;;;;;;6.15;2.30;;;3.10;99.90;;;;;;5005006;28;20197;-70
2024/01/15 07:08:16;;;;;;;4.88;1.45;;;3.00;99.90;;;;;;5002711;28;20276;-70
2024/01/15 07:10:43;;;;;;;11.00;2.28;;;3.00;99.90;;;;;;5007551;28;20205;-71
2024/01/15 07:13:10;;;;;;;1.95;1.30;;;3.00;99.90;;;;;;5009011;28;20357;-69
2024/01/15 07:15:38;;;;;;;4.68;2.05;;;2.90;99.90;;;;;;5011354;28;20303;-70
2024/01/15 07:18:06;;;;;;;5.60;2.08;;;2.80;99.90;;;;;;5014085;28;20220;-71
2024/01/15 07:20:33;;;;;;;6.28;1.55;;;2.70;99.90;;;;;;5012247;28;20300;-70
2024/01/15 07:23:00;;;;;;;10.27;1.90;;;2.70;99.90;;;;;;5006187;28;20234;-69
2024/01/15 07:25:27;;;;;;;6.05;2.03;;;2.50;99.90;;;;;;5006880;28;20229;-71
2024/01/15 07:27:54;;;;;;;9.13;1.85;;;2.50;99.90;;;;;;5007492;28;20283;-71
2024/01/15 07:30:22;;;;;;;12.15;3.90;;;2.40;99.90;;;;;;5001101;28;20210;-71
2024/01/15 07:32:50;;;;;;;9.45;2.15;;;2.20;99.90;;;;;;5010036;28;20225;-70
2024/01/15 07:35:19;;;;;;;6.68;1.83;;;2.20;99.90;;;;;;5004888;28;20292;-70
2024/01/15 07:37:46;;;;;;;10.60;2.60;;;2.20;99.90;;;;;;5012769;28;20656;-69
2024/01/15 07:40:13;;;;;;;10.32;3.38;;;2.20;99.90;;;;;;5006901;28;20240;-70
2024/01/15 07:42:42;;;;;;;5.03;2.10;;;2.30;99.90;;;;;;5009680;28;20719;-73
2024/01/15 07:45:09;;;;;;;13.35;5.05;;;2.20;99.90;;;;;;5009625;28;20235;-72
2024/01/15 07:47:36;;;;;;;12.70;4.63;;;2.20;99.90;;;;;;5013003;28;20331;-68
2024/01/15 07:50:05;;;;;;;11.85;3.65;;;2.20;99.90;;;;;;5008874;28;21057;-73
2024/01/15 07:52:32;;;;;;;17.35;3.22;;;2.20;99.90;;;;;;5012316;28;20257;-72
2024/01/15 07:54:59;;;;;;;18.00;5.53;;;2.30;99.90;;;;;;5015104;28;20237;-71
2024/01/15 07:57:27;;;;;;;20.58;3.05;;;2.40;99.90;;;;;;5012550;28;20284;-72
2024/01/15 07:59:54;;;;;;;7.85;2.45;;;2.50;99.90;;;;;;5004685;28;20237;-73
2024/01/15 08:02:21;;;;;;;11.95;4.45;;;2.70;99.90;;;;;;5005961;28;20635;-70
2024/01/15 08:04:48;;;;;;;17.92;3.97;;;2.70;99.90;;;;;;5007916;28;20238;-70
2024/01/15 08:07:17;;;;;;;10.88;2.90;;;2.80;99.90;;;;;;5006081;28;20312;-71
2024/01/15 08:09:46;;;;;;;8.73;2.88;;;2.90;99.90;;;;;;5009569;28;20280;-72
2024/01/15 08:12:13;;;;;;;7.20;2.78;;;2.90;99.90;;;;;;5007601;28;20225;-68
2024/01/15 08:14:42;;;;;;;5.50;1.83;;;3.00;99.90;;;;;;5006347;28;20245;-70
2024/01/15 08:17:09;;;;;;;10.32;2.60;;;2.90;99.90;;;;;;5009090;28;20241;-71
2024/01/15 08:19:36;;;;;;;3.22;1.23;;;2.90;99.90;;;;;;5012343;28;20765;-71
2024/01/15 08:22:03;;;;;;;5.60;2.28;;;2.90;99.90;;;;;;5007758;28;20256;-70
2024/01/15 08:24:31;;;;;;;13.20;3.17;;;2.80;99.90;;;;;;5006909;28;20206;-71
2024/01/15 08:26:58;;;;;;;11.75;2.25;;;2.70;99.90;;;;;;5003571;28;20221;-69
2024/01/15 08:29:25;;;;;;;4.63;1.77;;;2.80;99.90;;;;;;5008713;28;20198;-71
2024/01/15 08:31:52;;;;;;;1.50;1.15;;;2.70;99.90;;;;;;5003452;28;20308;-70
2024/01/15 08:34:19;;;;;;;6.97;2.30;;;2.70;99.90;;;;;;5003261;28;20245;-72
2024/01/15 08:36:46;;;;;;;4.78;1.70;;;2.70;99.90;;;;;;5011342;28;20272;-70
2024/01/15 08:39:13;;;;;;;3.10;1.92;;;2.60;99.90;;;;;;5013014;28;20660;-72
2024/01/15 08:41:41;;;;;;;9.40;2.92;;;2.70;99.90;;;;;;5007820;28;20225;-69
2024/01/15 08:44:08;;;;;;;12.85;2.47;;;2.70;99.90;;;;;;5012701;28;20241;-70
2024/01/15 08:46:35;;;;;;;6.63;1.52;;;2.80;99.90;;;;;;5011093;28;20228;-68
2024/01/15 08:49:03;;;;;;;7.13;2.90;;;2.80;99.90;;;;;;5006163;28;20301;-72
2024/01/15 08:51:30;;;;;;;11.85;2.17;;;2.80;99.90;;;;;;5010954;28;20276;-71
2024/01/15 08:53:58;;;;;;;5.72;3.55;;;2.90;99.90;;;;;;5008268;28;20280;-70
2024/01/15 08:56:25;;;;;;;3.67;1.92;;;2.80;99.90;;;;;;5009097;28;20209;-72
2024/01/15 08:58:53;;;;;;;9.77;1.73;;;2.90;99.90;;;;;;5010023;28;20225;-72
2024/01/15 09:01:20;;;;;;;4.45;1.65;;;3.00;99.90;;;;;;5007229;28;20244;-73
2024/01/15 09:03:48;;;;;;;6.18;2.13;;;3.20;99.90;;;;;;5010352;28;20209;-70
2024/01/15 09:06:15;;;;;;;11.18;1.85;;;3.20;99.90;;;;;;5006872;28;20202;-73
2024/01/15 09:08:42;;;;;;;7.80;2.70;;;3.30;99.90;;;;;;4999472;28;20261;-71
2024/01/15 09:11:09;;;;;;;3.08;1.25;;;3.20;99.90;;;;;;4998613;28;20198;-70
2024/01/15 09:13:36;;;;;;;12.52;2.70;;;3.20;99.90;;;;;;4999133;28;20323;-73
2024/01/15 09:16:05;;;;;;;12.30;3.63;;;3.40;99.90;;;;;;5009013;28;20201;-71
2024/01/15 09:18:32;;;;;;;9.05;2.60;;;3.30;99.90;;;;;;5008447;28;20331;-73
2024/01/15 09:21:00;;;;;;;6.60;2.05;;;3.30;99.90;;;;;;5013108;28;20284;-73
2024/01/15 09:23:26;;;;;;;5.03;1.50;;;3.30;99.90;;;;;;5002600;28;20250;-71
2024/01/15 09:25:53;;;;;;;7.00;1.80;;;3.30;99.90;;;;;;5009361;28;20229;-73
2024/01/15 09:28:21;;;;;;;5.75;1.73;;;3.30;99.90;;;;;;5011916;28;20221;-72
2024/01/15 09:30:48;;;;;;;6.03;1.52;;;3.20;99.90;;;;;;5011515;28;20209;-73
2024/01/15 09:33:16;;;;;;;5.78;2.13;;;3.50;99.90;;;;;;5006685;28;20249;-70
2024/01/15 09:35:47;;;;;;;8.23;2.40;;;3.40;99.90;;;;;;4997222;28;20210;-70
2024/01/15 09:38:14;;;;;;;7.65;2.58;;;3.40;99.90;;;;;;5006761;28;20268;-72
2024/01/15 09:40:44;;;;;;;4.60;1.50;;;3.50;99.90;;;;;;5003963;28;20669;-72
2024/01/15 09:43:12;;;;;;;6.82;2.15;;;3.50;99.90;;;;;;5005142;28;20221;-71
2024/01/15 09:45:40;;;;;;;5.13;2.05;;;3.40;99.90;;;;;;5008216;28;20653;-71
2024/01/15 09:48:08;;;;;;;8.20;2.38;;;3.10;99.90;;;;;;5012534;28;20672;-71
2024/01/15 09:50:36;;;;;;;6.53;2.70;;;3.00;99.90;;;;;;5008687;28;20696;-70
2024/01/15 09:53:04;;;;;;;4.90;1.85;;;3.00;99.90;;;;;;4999385;28;20224;-71
2024/01/15 09:55:32;;;;;;;5.28;1.80;;;2.90;99.90;;;;;;4999307;28;20291;-74
2024/01/15 09:58:01;;;;;;;8.75;2.25;;;3.20;99.90;;;;;;5007481;28;20672;-71
2024/01/15 10:00:31;;;;;;;5.13;2.25;;;3.50;99.90;;;;;;5004758;28;20245;-71
2024/01/15 10:02:58;;;;;;;4.10;1.60;;;3.40;99.90;;;;;;5000227;28;20232;-72
2024/01/15 10:05:25;;;;;;;3.83;2.40;;;3.40;99.90;;;;;;5006545;28;20205;-72
2024/01/15 10:07:55;;;;;;;5.70;2.20;;;3.40;99.90;;;;;;5009945;28;20233;-73
2024/01/15 10:10:22;;;;;;;5.68;2.90;;;3.40;99.90;;;;;;5004678;28;20238;-72
2024/01/15 10:12:50;;;;;;;4.53;3.10;;;3.50;99.90;;;;;;5006019;28;20233;-72
2024/01/15 10:15:17;;;;;;;8.07;1.80;;;3.50;99.90;;;;;;5003431;28;20205;-70
2024/01/15 10:17:44;;;;;;;5.30;1.80;;;3.50;99.90;;;;;;5008718;28;20581;-72
2024/01/15 10:20:12;;;;;;;7.05;3.25;;;3.40;99.90;;;;;;4998998;28;20198;-71
2024/01/15 10:22:43;;;;;;;8.27;2.17;;;3.30;99.90;;;;;;5007627;28;20605;-74
2024/01/15 10:25:13;;;;;;;7.00;2.38;;;3.30;99.90;;;;;;5003983;28;20288;-70
2024/01/15 10:27:41;;;;;;;29.13;2.97;;;3.40;99.90;;;;;;5003044;28;20284;-74
2024/01/15 10:30:09;;;;;;;4.60;2.25;;;3.30;99.90;;;;;;5011861;28;20267;-70
2024/01/15 10:32:36;;;;;;;7.00;2.00;;;3.30;99.90;;;;;;5006970;28;20252;-71
2024/01/15 10:35:03;;;;;;;9.13;2.47;;;3.20;99.90;;;;;;5004341;28;20261;-70
2024/01/15 10:37:34;;;;;;;9.95;2.50;;;3.30;99.90;;;;;;5008563;28;20210;-73
2024/01/15 10:40:04;;;;;;;10.18;2.40;;;3.20;99.90;;;;;;4999583;28;20261;-74
2024/01/15 10:42:33;;;;;;;7.03;2.03;;;3.40;99.90;;;;;;5000586;28;20767;-72
2024/01/15 10:45:00;;;;;;;7.43;2.20;;;3.30;99.90;;;;;;5001156;28;20616;-74
2024/01/15 10:47:27;;;;;;;11.63;2.38;;;3.50;99.90;;;;;;5003006;28;20288;-72
2024/01/15 10:49:55;;;;;;;8.57;1.90;;;3.50;99.90;;;;;;5009253;28;20622;-74
2024/01/15 10:52:23;;;;;;;9.80;3.67;;;3.60;99.90;;;;;;5005131;28;20221;-74
2024/01/15 10:54:51;;;;;;;4.70;2.70;;;3.80;99.90;;;;;;5014361;28;20245;-71
2024/01/15 10:57:18;;;;;;;8.98;2.95;;;3.60;99.90;;;;;;5014673;28;20202;-73
2024/01/15 10:59:46;;;;;;;9.30;2.25;;;3.50;99.90;;;;;;5002667;28;20373;-71
2024/01/15 11:02:15;;;;;;;6.53;2.08;;;3.50;99.90;;;;;;5013018;28;20224;-71
2024/01/15 11:04:42;;;;;;;3.30;1.73;;;3.60;99.90;;;;;;5014352;28;20656;-70
2024/01/15 11:07:12;;;;;;;8.95;2.00;;;3.60;99.90;;;;;;5013739;28;20251;-71
2024/01/15 11:09:39;;;;;;;7.72;2.75;;;3.30;99.90;;;;;;5013861;28;20699;-72
2024/01/15 11:12:11;;;;;;;6.90;2.10;;;3.20;99.90;;;;;;5009998;28;20225;-71
2024/01/15 11:14:43;;;;;;;7.45;2.10;;;3.10;99.90;;;;;;5014169;28;20197;-71
2024/01/15 11:17:12;;;;;;;4.80;2.53;;;3.30;99.90;;;;;;5013729;28;20264;-73
2024/01/15 11:19:43;;;;;;;5.88;2.33;;;3.20;99.90;;;;;;5008538;28;20194;-68
2024/01/15 11:22:11;;;;;;;10.85;2.35;;;3.30;99.90;;;;;;5013310;28;20240;-72
2024/01/15 11:24:39;;;;;;;9.98;2.50;;;3.40;99.90;;;;;;5007036;28;20257;-69
2024/01/15 11:27:08;;;;;;;2.95;1.55;;;3.50;99.90;;;;;;5008278;28;20301;-71
2024/01/15 11:29:36;;;;;;;7.35;1.90;;;3.60;99.90;;;;;;5008834;28;20330;-73
2024/01/15 11:32:08;;;;;;;3.05;1.90;;;3.70;99.90;;;;;;5006141;28;20276;-71
2024/01/15 11:34:57;;;;;;;4.00;1.25;;;3.60;99.90;;;;;;5006347;28;20256;-70
2024/01/15 11:37:26;;;;;;;3.60;2.20;;;3.70;99.90;;;;;;5009775;28;20588;-69
2024/01/15 11:39:54;;;;;;;9.85;2.05;;;3.80;99.90;;;;;;5005635;28;20233;-72
2024/01/15 11:42:22;;;;;;;2.50;1.60;;;3.90;99.90;;;;;;5010021;28;20316;-69
2024/01/15 11:44:50;;;;;;;5.22;1.95;;;3.90;99.90;;;;;;5004356;28;20226;-68
2024/01/15 11:47:22;;;;;;;7.57;2.00;;;3.90;99.90;;;;;;5011133;28;20259;-70
2024/01/15 11:50:05;;;;;;;8.70;1.75;;;4.00;99.90;;;;;;5012068;28;20259;-71
2024/01/15 11:52:36;;;;;;;9.02;2.95;;;3.90;99.90;;;;;;5008164;28;20256;-69
2024/01/15 11:55:12;;;;;;;5.30;1.85;;;3.90;99.90;;;;;;5008282;28;20233;-71
2024/01/15 11:57:44;;;;;;;6.65;1.83;;;3.90;99.90;;;;;;5010118;28;20237;-70
2024/01/15 12:00:12;;;;;;;10.10;2.42;;;4.00;99.90;;;;;;5012714;28;20271;-74
2024/01/15 12:02:41;;;;;;;4.22;1.45;;;4.20;99.90;;;;;;5006540;28;20222;-69
2024/01/15 12:05:12;;;;;;;11.15;1.80;;;4.20;99.90;;;;;;5014734;28;20207;-71
2024/01/15 12:07:39;;;;;;;4.75;2.05;;;4.30;99.90;;;;;;5010565;28;20293;-71
2024/01/15 12:10:10;;;;;;;5.07;1.75;;;4.40;99.90;;;;;;5012904;28;20252;-71
2024/01/15 12:12:58;;;;;;;6.30;1.60;;;4.40;99.90;;;;;;5008207;28;20221;-70
2024/01/15 12:15:25;;;;;;;3.30;1.98;;;4.40;99.90;;;;;;5001787;28;20280;-71
2024/01/15 12:17:52;;;;;;;6.68;2.00;;;4.40;99.90;;;;;;5008213;28;20672;-67
2024/01/15 12:20:21;;;;;;;3.10;1.15;;;4.40;99.90;;;;;;5007671;28;20352;-70
2024/01/15 12:22:47;;;;;;;4.50;1.77;;;4.50;99.90;;;;;;5006504;28;20598;-72
2024/01/15 12:25:14;;;;;;;11.23;2.85;;;4.50;99.90;;;;;;5003964;28;20213;-69
2024/01/15 12:27:42;;;;;;;4.00;1.55;;;4.50;99.90;;;;;;5005197;28;20209;-73
2024/01/15 12:30:12;;;;;;;4.10;1.77;;;4.40;99.90;;;;;;5004618;28;20290;-73
2024/01/15 12:32:39;;;;;;;6.10;1.50;;;4.40;99.90;;;;;;5002706;28;20225;-71
2024/01/15 12:35:07;;;;;;;10.18;2.05;;;4.30;99.90;;;;;;5008990;28;20292;-68
2024/01/15 12:37:36;;;;;;;2.63;1.30;;;4.10;99.90;;;;;;5001922;28;20233;-71
2024/01/15 12:40:04;;;;;;;4.25;1.45;;;4.20;99.90;;;;;;5001907;28;20879;-71
2024/01/15 12:42:31;;;;;;;3.75;1.30;;;4.20;99.90;;;;;;5007047;28;20567;-72
2024/01/15 12:44:57;;;;;;;3.42;1.70;;;4.10;99.90;;;;;;5011194;28;20233;-72
2024/01/15 12:47:24;;;;;;;8.25;1.38;;;4.10;99.90;;;;;;5007432;28;20194;-73
2024/01/15 12:49:54;;;;;;;6.45;1.85;;;4.20;99.90;;;;;;5001779;28;20230;-70
2024/01/15 12:52:22;;;;;;;5.82;1.40;;;4.10;99.90;;;;;;5009948;28;20257;-69
2024/01/15 12:54:52;;;;;;;3.13;1.50;;;4.00;99.90;;;;;;5012296;28;20232;-71
2024/01/15 12:57:19;;;;;;;8.30;3.15;;;4.00;99.90;;;;;;5007505;28;20214;-70